sensor_id;sensor_type;location;lat;lon;timestamp;P1;durP1;ratioP1;P2;durP2;ratioP2
17145;SDS011;8688;54.444;18.444;2023-05-19T00:00:20;3.67;;;1.40;;
17145;SDS011;8688;54.444;18.444;2023-05-19T00:02:49;2.83;;;1.40;;
17145;SDS011;8688;54.444;18.444;2023-05-19T00:05:17;2.80;;;1.20;;
17145;SDS011;8688;54.444;18.444;2023-05-19T00:07:45;2.60;;;1.20;;
17145;SDS011;8688;54.444;18.444;2023-05-19T00:10:17;2.87;;;1.33;;
17145;SDS011;8688;54.444;18.444;2023-05-19T00:12:45;7.43;;;1.10;;
17145;SDS011;8688;54.444;18.444;2023-05-19T00:15:14;4.77;;;1.13;;
17145;SDS011;8688;54.444;18.444;2023-05-19T00:17:43;3.17;;;1.20;;
17145;SDS011;8688;54.444;18.444;2023-05-19T00:20:11;2.33;;;1.10;;
17145;SDS011;8688;54.444;18.444;2023-05-19T00:22:39;2.43;;;1.13;;
17145;SDS011;8688;54.444;18.444;2023-05-19T00:25:09;2.63;;;1.20;;
17145;SDS011;8688;54.444;18.444;2023-05-19T00:27:36;2.17;;;1.00;;
17145;SDS011;8688;54.444;18.444;2023-05-19T00:30:04;2.30;;;1.00;;
17145;SDS011;8688;54.444;18.444;2023-05-19T00:32:35;1.40;;;0.80;;
17145;SDS011;8688;54.444;18.444;2023-05-19T00:35:04;2.10;;;0.97;;
17145;SDS011;8688;54.444;18.444;2023-05-19T00:37:32;2.00;;;0.87;;
17145;SDS011;8688;54.444;18.444;2023-05-19T00:39:59;2.10;;;0.97;;
17145;SDS011;8688;54.444;18.444;2023-05-19T00:42:30;1.40;;;0.87;;
17145;SDS011;8688;54.444;18.444;2023-05-19T00:44:58;2.87;;;1.00;;
17145;SDS011;8688;54.444;18.444;2023-05-19T00:47:26;2.13;;;0.77;;
17145;SDS011;8688;54.444;18.444;2023-05-19T00:49:53;3.93;;;1.10;;
17145;SDS011;8688;54.444;18.444;2023-05-19T00:52:22;1.73;;;0.93;;
17145;SDS011;8688;54.444;18.444;2023-05-19T00:54:50;2.13;;;0.80;;
17145;SDS011;8688;54.444;18.444;2023-05-19T00:57:18;2.43;;;0.90;;
17145;SDS011;8688;54.444;18.444;2023-05-19T00:59:46;2.30;;;1.30;;
17145;SDS011;8688;54.444;18.444;2023-05-19T01:02:14;2.83;;;1.17;;
17145;SDS011;8688;54.444;18.444;2023-05-19T01:04:42;2.30;;;1.00;;
17145;SDS011;8688;54.444;18.444;2023-05-19T01:07:11;2.20;;;1.07;;
17145;SDS011;8688;54.444;18.444;2023-05-19T01:09:40;2.07;;;1.10;;
17145;SDS011;8688;54.444;18.444;2023-05-19T01:12:08;2.37;;;0.90;;
17145;SDS011;8688;54.444;18.444;2023-05-19T01:14:35;0.97;;;0.87;;
17145;SDS011;8688;54.444;18.444;2023-05-19T01:17:05;2.87;;;1.00;;
17145;SDS011;8688;54.444;18.444;2023-05-19T01:19:42;2.07;;;1.00;;
17145;SDS011;8688;54.444;18.444;2023-05-19T01:28:39;3.10;;;1.07;;
17145;SDS011;8688;54.444;18.444;2023-05-19T01:31:30;1.87;;;1.23;;
17145;SDS011;8688;54.444;18.444;2023-05-19T01:33:58;2.23;;;1.20;;
17145;SDS011;8688;54.444;18.444;2023-05-19T01:36:28;6.97;;;1.40;;
17145;SDS011;8688;54.444;18.444;2023-05-19T01:38:59;4.27;;;1.10;;
17145;SDS011;8688;54.444;18.444;2023-05-19T01:41:27;2.07;;;1.20;;
17145;SDS011;8688;54.444;18.444;2023-05-19T01:43:56;4.33;;;1.20;;
17145;SDS011;8688;54.444;18.444;2023-05-19T01:46:24;3.90;;;1.30;;
17145;SDS011;8688;54.444;18.444;2023-05-19T01:48:53;1.87;;;1.00;;
17145;SDS011;8688;54.444;18.444;2023-05-19T01:51:21;3.63;;;1.30;;
17145;SDS011;8688;54.444;18.444;2023-05-19T01:53:48;1.37;;;1.07;;
17145;SDS011;8688;54.444;18.444;2023-05-19T01:56:19;2.40;;;1.10;;
17145;SDS011;8688;54.444;18.444;2023-05-19T01:58:52;2.37;;;1.30;;
17145;SDS011;8688;54.444;18.444;2023-05-19T02:01:27;2.67;;;1.40;;
17145;SDS011;8688;54.444;18.444;2023-05-19T02:04:14;3.77;;;1.17;;
17145;SDS011;8688;54.444;18.444;2023-05-19T02:06:52;5.20;;;1.53;;
17145;SDS011;8688;54.444;18.444;2023-05-19T02:09:31;2.20;;;0.87;;
17145;SDS011;8688;54.444;18.444;2023-05-19T02:12:07;5.03;;;1.37;;
17145;SDS011;8688;54.444;18.444;2023-05-19T02:14:43;2.93;;;1.40;;
17145;SDS011;8688;54.444;18.444;2023-05-19T02:17:15;3.87;;;1.00;;
17145;SDS011;8688;54.444;18.444;2023-05-19T02:19:46;2.80;;;1.20;;
17145;SDS011;8688;54.444;18.444;2023-05-19T02:22:13;3.90;;;1.20;;
17145;SDS011;8688;54.444;18.444;2023-05-19T02:24:41;2.10;;;1.20;;
17145;SDS011;8688;54.444;18.444;2023-05-19T02:27:09;4.33;;;1.03;;
17145;SDS011;8688;54.444;18.444;2023-05-19T02:29:36;3.23;;;1.03;;
17145;SDS011;8688;54.444;18.444;2023-05-19T02:32:05;2.73;;;1.30;;
17145;SDS011;8688;54.444;18.444;2023-05-19T02:34:33;2.40;;;1.20;;
17145;SDS011;8688;54.444;18.444;2023-05-19T02:37:02;3.50;;;1.20;;
17145;SDS011;8688;54.444;18.444;2023-05-19T02:39:31;2.93;;;1.20;;
17145;SDS011;8688;54.444;18.444;2023-05-19T02:42:00;3.93;;;1.20;;
17145;SDS011;8688;54.444;18.444;2023-05-19T02:44:28;1.60;;;0.93;;
17145;SDS011;8688;54.444;18.444;2023-05-19T02:46:55;2.83;;;1.10;;
17145;SDS011;8688;54.444;18.444;2023-05-19T02:49:23;3.13;;;0.90;;
17145;SDS011;8688;54.444;18.444;2023-05-19T02:51:50;1.93;;;1.00;;
17145;SDS011;8688;54.444;18.444;2023-05-19T02:54:19;2.73;;;1.10;;
17145;SDS011;8688;54.444;18.444;2023-05-19T02:56:47;4.23;;;1.00;;
17145;SDS011;8688;54.444;18.444;2023-05-19T02:59:14;2.43;;;1.00;;
17145;SDS011;8688;54.444;18.444;2023-05-19T03:01:41;3.80;;;1.23;;
17145;SDS011;8688;54.444;18.444;2023-05-19T03:04:09;0.97;;;0.73;;
17145;SDS011;8688;54.444;18.444;2023-05-19T03:06:38;3.97;;;1.10;;
17145;SDS011;8688;54.444;18.444;2023-05-19T03:09:06;1.93;;;0.90;;
17145;SDS011;8688;54.444;18.444;2023-05-19T03:11:35;1.30;;;0.80;;
17145;SDS011;8688;54.444;18.444;2023-05-19T03:14:03;2.47;;;1.27;;
17145;SDS011;8688;54.444;18.444;2023-05-19T03:16:31;4.23;;;1.13;;
17145;SDS011;8688;54.444;18.444;2023-05-19T03:18:58;4.33;;;1.10;;
17145;SDS011;8688;54.444;18.444;2023-05-19T03:21:26;2.90;;;1.00;;
17145;SDS011;8688;54.444;18.444;2023-05-19T03:23:54;2.43;;;1.10;;
17145;SDS011;8688;54.444;18.444;2023-05-19T03:26:21;5.50;;;1.37;;
17145;SDS011;8688;54.444;18.444;2023-05-19T03:28:50;4.27;;;1.50;;
17145;SDS011;8688;54.444;18.444;2023-05-19T03:31:18;2.90;;;1.20;;
17145;SDS011;8688;54.444;18.444;2023-05-19T03:33:45;3.43;;;1.40;;
17145;SDS011;8688;54.444;18.444;2023-05-19T03:36:13;3.67;;;1.13;;
17145;SDS011;8688;54.444;18.444;2023-05-19T03:38:40;3.17;;;1.27;;
17145;SDS011;8688;54.444;18.444;2023-05-19T03:41:08;1.87;;;1.10;;
17145;SDS011;8688;54.444;18.444;2023-05-19T03:43:35;1.40;;;0.97;;
17145;SDS011;8688;54.444;18.444;2023-05-19T03:46:04;2.13;;;0.90;;
17145;SDS011;8688;54.444;18.444;2023-05-19T03:48:32;2.57;;;1.50;;
17145;SDS011;8688;54.444;18.444;2023-05-19T03:50:59;5.50;;;1.20;;
17145;SDS011;8688;54.444;18.444;2023-05-19T03:53:28;2.63;;;1.13;;
17145;SDS011;8688;54.444;18.444;2023-05-19T03:55:56;2.90;;;1.07;;
17145;SDS011;8688;54.444;18.444;2023-05-19T03:58:23;2.57;;;1.40;;
17145;SDS011;8688;54.444;18.444;2023-05-19T04:00:51;4.53;;;1.60;;
17145;SDS011;8688;54.444;18.444;2023-05-19T04:03:19;3.43;;;1.50;;
17145;SDS011;8688;54.444;18.444;2023-05-19T04:05:47;6.73;;;1.50;;
17145;SDS011;8688;54.444;18.444;2023-05-19T04:08:15;3.47;;;1.20;;
17145;SDS011;8688;54.444;18.444;2023-05-19T04:10:43;3.37;;;1.43;;
17145;SDS011;8688;54.444;18.444;2023-05-19T04:13:10;2.50;;;1.20;;
17145;SDS011;8688;54.444;18.444;2023-05-19T04:15:38;5.57;;;1.30;;
17145;SDS011;8688;54.444;18.444;2023-05-19T04:18:05;5.40;;;1.17;;
17145;SDS011;8688;54.444;18.444;2023-05-19T04:20:34;5.33;;;1.17;;
17145;SDS011;8688;54.444;18.444;2023-05-19T04:23:02;5.13;;;1.00;;
17145;SDS011;8688;54.444;18.444;2023-05-19T04:25:29;4.30;;;1.20;;
17145;SDS011;8688;54.444;18.444;2023-05-19T04:27:57;5.80;;;1.30;;
17145;SDS011;8688;54.444;18.444;2023-05-19T04:30:25;2.97;;;1.57;;
17145;SDS011;8688;54.444;18.444;2023-05-19T04:32:52;2.53;;;1.20;;
17145;SDS011;8688;54.444;18.444;2023-05-19T04:35:22;4.20;;;1.50;;
17145;SDS011;8688;54.444;18.444;2023-05-19T04:37:51;4.87;;;1.03;;
17145;SDS011;8688;54.444;18.444;2023-05-19T04:40:19;4.90;;;1.10;;
17145;SDS011;8688;54.444;18.444;2023-05-19T04:42:48;4.37;;;1.83;;
17145;SDS011;8688;54.444;18.444;2023-05-19T04:45:16;1.57;;;0.80;;
17145;SDS011;8688;54.444;18.444;2023-05-19T04:47:44;4.77;;;1.20;;
17145;SDS011;8688;54.444;18.444;2023-05-19T04:50:12;1.02;;;0.77;;
17145;SDS011;8688;54.444;18.444;2023-05-19T04:52:40;4.30;;;0.98;;
17145;SDS011;8688;54.444;18.444;2023-05-19T04:55:11;4.28;;;0.85;;
17145;SDS011;8688;54.444;18.444;2023-05-19T04:57:38;1.40;;;0.67;;
17145;SDS011;8688;54.444;18.444;2023-05-19T05:00:06;4.03;;;0.88;;
17145;SDS011;8688;54.444;18.444;2023-05-19T05:02:38;3.78;;;1.10;;
17145;SDS011;8688;54.444;18.444;2023-05-19T05:05:06;3.20;;;0.90;;
17145;SDS011;8688;54.444;18.444;2023-05-19T05:10:43;6.00;;;1.10;;
17145;SDS011;8688;54.444;18.444;2023-05-19T05:13:10;5.07;;;1.10;;
17145;SDS011;8688;54.444;18.444;2023-05-19T05:15:38;2.35;;;1.05;;
17145;SDS011;8688;54.444;18.444;2023-05-19T05:18:06;3.83;;;0.88;;
17145;SDS011;8688;54.444;18.444;2023-05-19T05:20:35;3.28;;;0.88;;
17145;SDS011;8688;54.444;18.444;2023-05-19T05:23:03;2.75;;;0.90;;
17145;SDS011;8688;54.444;18.444;2023-05-19T05:25:31;1.70;;;0.70;;
17145;SDS011;8688;54.444;18.444;2023-05-19T05:28:00;4.82;;;1.10;;
17145;SDS011;8688;54.444;18.444;2023-05-19T05:30:29;3.40;;;0.90;;
17145;SDS011;8688;54.444;18.444;2023-05-19T05:32:56;3.40;;;1.00;;
17145;SDS011;8688;54.444;18.444;2023-05-19T05:35:24;2.63;;;0.90;;
17145;SDS011;8688;54.444;18.444;2023-05-19T05:37:51;2.80;;;0.80;;
17145;SDS011;8688;54.444;18.444;2023-05-19T05:40:19;5.45;;;0.90;;
17145;SDS011;8688;54.444;18.444;2023-05-19T05:42:46;1.90;;;0.63;;
17145;SDS011;8688;54.444;18.444;2023-05-19T05:45:15;1.27;;;0.70;;
17145;SDS011;8688;54.444;18.444;2023-05-19T05:47:43;2.22;;;0.65;;
17145;SDS011;8688;54.444;18.444;2023-05-19T05:50:11;4.78;;;1.20;;
17145;SDS011;8688;54.444;18.444;2023-05-19T05:52:40;1.85;;;0.88;;
17145;SDS011;8688;54.444;18.444;2023-05-19T05:55:12;2.40;;;0.88;;
17145;SDS011;8688;54.444;18.444;2023-05-19T05:57:40;1.38;;;0.70;;
17145;SDS011;8688;54.444;18.444;2023-05-19T06:00:08;4.10;;;0.90;;
17145;SDS011;8688;54.444;18.444;2023-05-19T06:02:42;2.75;;;0.70;;
17145;SDS011;8688;54.444;18.444;2023-05-19T06:05:10;2.35;;;0.52;;
17145;SDS011;8688;54.444;18.444;2023-05-19T06:07:38;1.90;;;0.80;;
17145;SDS011;8688;54.444;18.444;2023-05-19T06:10:06;3.70;;;0.95;;
17145;SDS011;8688;54.444;18.444;2023-05-19T06:12:34;4.32;;;1.10;;
17145;SDS011;8688;54.444;18.444;2023-05-19T06:15:04;2.97;;;0.85;;
17145;SDS011;8688;54.444;18.444;2023-05-19T06:17:33;1.88;;;0.70;;
17145;SDS011;8688;54.444;18.444;2023-05-19T06:20:02;2.55;;;0.85;;
17145;SDS011;8688;54.444;18.444;2023-05-19T06:22:31;2.97;;;0.80;;
17145;SDS011;8688;54.444;18.444;2023-05-19T06:24:58;1.25;;;0.60;;
17145;SDS011;8688;54.444;18.444;2023-05-19T06:27:26;2.92;;;0.70;;
17145;SDS011;8688;54.444;18.444;2023-05-19T06:29:53;2.58;;;0.85;;
17145;SDS011;8688;54.444;18.444;2023-05-19T06:32:21;3.58;;;1.13;;
17145;SDS011;8688;54.444;18.444;2023-05-19T06:34:48;1.65;;;0.90;;
17145;SDS011;8688;54.444;18.444;2023-05-19T06:37:20;4.00;;;1.23;;
17145;SDS011;8688;54.444;18.444;2023-05-19T06:39:48;2.63;;;1.00;;
17145;SDS011;8688;54.444;18.444;2023-05-19T06:42:17;5.05;;;1.20;;
17145;SDS011;8688;54.444;18.444;2023-05-19T06:44:47;3.78;;;1.08;;
17145;SDS011;8688;54.444;18.444;2023-05-19T06:47:14;3.15;;;1.10;;
17145;SDS011;8688;54.444;18.444;2023-05-19T06:49:42;2.78;;;1.05;;
17145;SDS011;8688;54.444;18.444;2023-05-19T06:52:10;4.25;;;1.25;;
17145;SDS011;8688;54.444;18.444;2023-05-19T06:54:39;2.72;;;1.17;;
17145;SDS011;8688;54.444;18.444;2023-05-19T06:57:06;3.65;;;1.38;;
17145;SDS011;8688;54.444;18.444;2023-05-19T06:59:34;5.22;;;1.50;;
17145;SDS011;8688;54.444;18.444;2023-05-19T07:02:05;5.25;;;1.20;;
17145;SDS011;8688;54.444;18.444;2023-05-19T07:04:33;3.45;;;1.58;;
17145;SDS011;8688;54.444;18.444;2023-05-19T07:07:01;4.05;;;1.10;;
17145;SDS011;8688;54.444;18.444;2023-05-19T07:09:28;3.03;;;1.00;;
17145;SDS011;8688;54.444;18.444;2023-05-19T07:11:57;2.28;;;1.05;;
17145;SDS011;8688;54.444;18.444;2023-05-19T07:14:25;5.57;;;1.17;;
17145;SDS011;8688;54.444;18.444;2023-05-19T07:16:53;1.63;;;0.90;;
17145;SDS011;8688;54.444;18.444;2023-05-19T07:19:20;3.05;;;1.35;;
17145;SDS011;8688;54.444;18.444;2023-05-19T07:21:48;2.15;;;0.75;;
17145;SDS011;8688;54.444;18.444;2023-05-19T07:24:16;2.72;;;1.10;;
17145;SDS011;8688;54.444;18.444;2023-05-19T07:26:45;1.73;;;0.82;;
17145;SDS011;8688;54.444;18.444;2023-05-19T07:29:14;3.90;;;1.00;;
17145;SDS011;8688;54.444;18.444;2023-05-19T07:31:41;2.67;;;1.00;;
17145;SDS011;8688;54.444;18.444;2023-05-19T07:34:09;1.70;;;0.85;;
17145;SDS011;8688;54.444;18.444;2023-05-19T07:36:36;2.88;;;0.93;;
17145;SDS011;8688;54.444;18.444;2023-05-19T07:39:04;3.42;;;0.90;;
17145;SDS011;8688;54.444;18.444;2023-05-19T07:41:31;2.08;;;0.95;;
17145;SDS011;8688;54.444;18.444;2023-05-19T07:43:59;1.10;;;0.80;;
17145;SDS011;8688;54.444;18.444;2023-05-19T07:46:33;2.70;;;0.82;;
17145;SDS011;8688;54.444;18.444;2023-05-19T07:49:00;2.53;;;0.90;;
17145;SDS011;8688;54.444;18.444;2023-05-19T07:51:28;3.10;;;1.08;;
17145;SDS011;8688;54.444;18.444;2023-05-19T07:53:56;1.70;;;0.77;;
17145;SDS011;8688;54.444;18.444;2023-05-19T07:56:23;4.40;;;0.90;;
17145;SDS011;8688;54.444;18.444;2023-05-19T07:58:51;2.70;;;1.30;;
17145;SDS011;8688;54.444;18.444;2023-05-19T08:01:19;3.67;;;0.80;;
17145;SDS011;8688;54.444;18.444;2023-05-19T08:03:47;2.38;;;0.90;;
17145;SDS011;8688;54.444;18.444;2023-05-19T08:06:15;1.35;;;0.90;;
17145;SDS011;8688;54.444;18.444;2023-05-19T08:08:42;4.63;;;0.80;;
17145;SDS011;8688;54.444;18.444;2023-05-19T08:11:10;2.05;;;1.00;;
17145;SDS011;8688;54.444;18.444;2023-05-19T08:13:38;2.05;;;0.98;;
17145;SDS011;8688;54.444;18.444;2023-05-19T08:16:05;2.30;;;0.98;;
17145;SDS011;8688;54.444;18.444;2023-05-19T08:18:34;1.52;;;0.70;;
17145;SDS011;8688;54.444;18.444;2023-05-19T08:21:03;3.38;;;1.23;;
17145;SDS011;8688;54.444;18.444;2023-05-19T08:23:31;3.78;;;1.05;;
17145;SDS011;8688;54.444;18.444;2023-05-19T08:25:59;1.77;;;0.82;;
17145;SDS011;8688;54.444;18.444;2023-05-19T08:28:27;1.67;;;0.93;;
17145;SDS011;8688;54.444;18.444;2023-05-19T08:30:54;4.20;;;1.08;;
17145;SDS011;8688;54.444;18.444;2023-05-19T08:33:22;5.85;;;1.20;;
17145;SDS011;8688;54.444;18.444;2023-05-19T08:35:49;1.38;;;0.80;;
17145;SDS011;8688;54.444;18.444;2023-05-19T08:38:18;3.00;;;1.00;;
17145;SDS011;8688;54.444;18.444;2023-05-19T08:40:47;2.35;;;1.00;;
17145;SDS011;8688;54.444;18.444;2023-05-19T08:43:14;3.47;;;0.90;;
17145;SDS011;8688;54.444;18.444;2023-05-19T08:45:42;2.38;;;1.10;;
17145;SDS011;8688;54.444;18.444;2023-05-19T08:48:12;2.70;;;0.93;;
17145;SDS011;8688;54.444;18.444;2023-05-19T08:50:43;5.45;;;1.23;;
17145;SDS011;8688;54.444;18.444;2023-05-19T08:53:19;2.95;;;1.00;;
17145;SDS011;8688;54.444;18.444;2023-05-19T08:55:54;2.83;;;1.10;;
17145;SDS011;8688;54.444;18.444;2023-05-19T08:58:28;5.10;;;1.40;;
17145;SDS011;8688;54.444;18.444;2023-05-19T09:00:57;4.70;;;1.55;;
17145;SDS011;8688;54.444;18.444;2023-05-19T09:03:27;6.13;;;1.48;;
17145;SDS011;8688;54.444;18.444;2023-05-19T09:05:55;2.65;;;1.20;;
17145;SDS011;8688;54.444;18.444;2023-05-19T09:08:24;1.45;;;1.00;;
17145;SDS011;8688;54.444;18.444;2023-05-19T09:10:51;7.20;;;1.00;;
17145;SDS011;8688;54.444;18.444;2023-05-19T09:13:19;7.32;;;2.03;;
17145;SDS011;8688;54.444;18.444;2023-05-19T09:15:46;2.92;;;1.02;;
17145;SDS011;8688;54.444;18.444;2023-05-19T09:18:16;2.25;;;1.08;;
17145;SDS011;8688;54.444;18.444;2023-05-19T09:20:44;2.80;;;1.08;;
17145;SDS011;8688;54.444;18.444;2023-05-19T09:23:12;2.38;;;1.10;;
17145;SDS011;8688;54.444;18.444;2023-05-19T09:25:47;4.28;;;1.20;;
17145;SDS011;8688;54.444;18.444;2023-05-19T09:28:21;6.00;;;1.20;;
17145;SDS011;8688;54.444;18.444;2023-05-19T09:30:56;2.85;;;1.50;;
17145;SDS011;8688;54.444;18.444;2023-05-19T09:33:25;3.92;;;1.30;;
17145;SDS011;8688;54.444;18.444;2023-05-19T09:35:53;4.20;;;1.35;;
17145;SDS011;8688;54.444;18.444;2023-05-19T09:38:22;4.18;;;1.38;;
17145;SDS011;8688;54.444;18.444;2023-05-19T09:40:52;1.58;;;1.10;;
17145;SDS011;8688;54.444;18.444;2023-05-19T09:43:22;3.75;;;1.35;;
17145;SDS011;8688;54.444;18.444;2023-05-19T09:45:53;1.98;;;1.10;;
17145;SDS011;8688;54.444;18.444;2023-05-19T09:48:25;3.63;;;1.38;;
17145;SDS011;8688;54.444;18.444;2023-05-19T09:50:52;2.85;;;1.13;;
17145;SDS011;8688;54.444;18.444;2023-05-19T09:53:21;2.72;;;1.10;;
17145;SDS011;8688;54.444;18.444;2023-05-19T09:55:49;2.10;;;1.17;;
17145;SDS011;8688;54.444;18.444;2023-05-19T09:58:21;8.95;;;1.58;;
17145;SDS011;8688;54.444;18.444;2023-05-19T10:00:49;2.55;;;1.40;;
17145;SDS011;8688;54.444;18.444;2023-05-19T10:03:18;7.05;;;1.30;;
17145;SDS011;8688;54.444;18.444;2023-05-19T10:05:46;4.72;;;1.27;;
17145;SDS011;8688;54.444;18.444;2023-05-19T10:08:15;1.83;;;1.10;;
17145;SDS011;8688;54.444;18.444;2023-05-19T10:10:44;2.60;;;1.17;;
17145;SDS011;8688;54.444;18.444;2023-05-19T10:13:14;2.20;;;1.00;;
17145;SDS011;8688;54.444;18.444;2023-05-19T10:15:42;4.10;;;1.05;;
17145;SDS011;8688;54.444;18.444;2023-05-19T10:18:11;4.10;;;1.30;;
17145;SDS011;8688;54.444;18.444;2023-05-19T10:20:41;5.55;;;1.38;;
17145;SDS011;8688;54.444;18.444;2023-05-19T10:23:09;1.83;;;1.10;;
17145;SDS011;8688;54.444;18.444;2023-05-19T10:25:37;3.17;;;1.52;;
17145;SDS011;8688;54.444;18.444;2023-05-19T10:28:06;3.20;;;1.20;;
17145;SDS011;8688;54.444;18.444;2023-05-19T10:30:38;2.35;;;1.17;;
17145;SDS011;8688;54.444;18.444;2023-05-19T10:33:09;5.32;;;1.50;;
17145;SDS011;8688;54.444;18.444;2023-05-19T10:38:38;2.03;;;1.25;;
17145;SDS011;8688;54.444;18.444;2023-05-19T10:41:10;3.58;;;1.42;;
17145;SDS011;8688;54.444;18.444;2023-05-19T10:43:47;2.45;;;1.30;;
17145;SDS011;8688;54.444;18.444;2023-05-19T10:46:23;6.80;;;1.55;;
17145;SDS011;8688;54.444;18.444;2023-05-19T10:48:52;3.90;;;1.40;;
17145;SDS011;8688;54.444;18.444;2023-05-19T10:51:20;2.78;;;1.50;;
17145;SDS011;8688;54.444;18.444;2023-05-19T10:53:55;3.63;;;1.10;;
17145;SDS011;8688;54.444;18.444;2023-05-19T10:56:27;4.15;;;1.45;;
17145;SDS011;8688;54.444;18.444;2023-05-19T10:58:58;2.70;;;1.35;;
17145;SDS011;8688;54.444;18.444;2023-05-19T11:01:31;3.78;;;1.23;;
17145;SDS011;8688;54.444;18.444;2023-05-19T11:04:03;4.68;;;1.38;;
17145;SDS011;8688;54.444;18.444;2023-05-19T11:06:36;2.72;;;1.40;;
17145;SDS011;8688;54.444;18.444;2023-05-19T11:09:11;4.22;;;1.50;;
17145;SDS011;8688;54.444;18.444;2023-05-19T11:11:46;7.55;;;1.92;;
17145;SDS011;8688;54.444;18.444;2023-05-19T11:14:14;2.72;;;1.50;;
17145;SDS011;8688;54.444;18.444;2023-05-19T11:16:49;4.50;;;1.58;;
17145;SDS011;8688;54.444;18.444;2023-05-19T11:19:18;2.75;;;1.23;;
17145;SDS011;8688;54.444;18.444;2023-05-19T11:21:51;4.65;;;1.23;;
17145;SDS011;8688;54.444;18.444;2023-05-19T11:24:32;4.50;;;1.30;;
17145;SDS011;8688;54.444;18.444;2023-05-19T11:27:17;3.88;;;1.33;;
17145;SDS011;8688;54.444;18.444;2023-05-19T11:29:56;1.75;;;1.23;;
17145;SDS011;8688;54.444;18.444;2023-05-19T11:32:26;3.10;;;1.30;;
17145;SDS011;8688;54.444;18.444;2023-05-19T11:34:55;5.18;;;1.30;;
17145;SDS011;8688;54.444;18.444;2023-05-19T11:37:23;7.75;;;1.55;;
17145;SDS011;8688;54.444;18.444;2023-05-19T11:39:50;3.40;;;1.50;;
17145;SDS011;8688;54.444;18.444;2023-05-19T11:42:18;6.35;;;1.60;;
17145;SDS011;8688;54.444;18.444;2023-05-19T11:44:46;4.55;;;1.40;;
17145;SDS011;8688;54.444;18.444;2023-05-19T11:47:14;1.65;;;1.20;;
17145;SDS011;8688;54.444;18.444;2023-05-19T11:49:44;3.17;;;1.48;;
17145;SDS011;8688;54.444;18.444;2023-05-19T11:52:14;2.58;;;1.48;;
17145;SDS011;8688;54.444;18.444;2023-05-19T11:54:41;4.47;;;1.77;;
17145;SDS011;8688;54.444;18.444;2023-05-19T11:57:13;4.03;;;1.70;;
17145;SDS011;8688;54.444;18.444;2023-05-19T11:59:41;7.18;;;1.35;;
17145;SDS011;8688;54.444;18.444;2023-05-19T12:02:14;1.92;;;1.38;;
17145;SDS011;8688;54.444;18.444;2023-05-19T12:04:44;2.40;;;1.23;;
17145;SDS011;8688;54.444;18.444;2023-05-19T12:07:12;2.30;;;1.40;;
17145;SDS011;8688;54.444;18.444;2023-05-19T12:09:42;2.75;;;1.13;;
17145;SDS011;8688;54.444;18.444;2023-05-19T12:12:12;4.50;;;1.67;;
17145;SDS011;8688;54.444;18.444;2023-05-19T12:14:41;4.45;;;1.40;;
17145;SDS011;8688;54.444;18.444;2023-05-19T12:17:11;28.45;;;3.03;;
17145;SDS011;8688;54.444;18.444;2023-05-19T12:19:39;3.97;;;1.80;;
17145;SDS011;8688;54.444;18.444;2023-05-19T12:22:15;2.20;;;1.50;;
17145;SDS011;8688;54.444;18.444;2023-05-19T12:24:46;2.63;;;1.50;;
17145;SDS011;8688;54.444;18.444;2023-05-19T12:27:16;2.58;;;1.70;;
17145;SDS011;8688;54.444;18.444;2023-05-19T12:29:48;2.33;;;1.40;;
17145;SDS011;8688;54.444;18.444;2023-05-19T12:32:16;3.22;;;1.63;;
17145;SDS011;8688;54.444;18.444;2023-05-19T12:34:44;4.47;;;1.90;;
17145;SDS011;8688;54.444;18.444;2023-05-19T12:37:11;2.95;;;1.50;;
17145;SDS011;8688;54.444;18.444;2023-05-19T12:39:40;2.20;;;1.40;;
17145;SDS011;8688;54.444;18.444;2023-05-19T12:42:09;3.50;;;1.33;;
17145;SDS011;8688;54.444;18.444;2023-05-19T12:44:37;4.18;;;1.40;;
17145;SDS011;8688;54.444;18.444;2023-05-19T12:47:08;4.05;;;1.60;;
17145;SDS011;8688;54.444;18.444;2023-05-19T12:49:35;3.88;;;1.20;;
17145;SDS011;8688;54.444;18.444;2023-05-19T12:52:03;2.60;;;1.50;;
17145;SDS011;8688;54.444;18.444;2023-05-19T12:54:31;2.25;;;1.17;;
17145;SDS011;8688;54.444;18.444;2023-05-19T12:57:00;1.90;;;1.15;;
17145;SDS011;8688;54.444;18.444;2023-05-19T12:59:32;4.15;;;1.25;;
17145;SDS011;8688;54.444;18.444;2023-05-19T13:02:00;1.58;;;1.13;;
17145;SDS011;8688;54.444;18.444;2023-05-19T13:04:28;2.28;;;1.20;;
17145;SDS011;8688;54.444;18.444;2023-05-19T13:06:55;1.50;;;1.10;;
17145;SDS011;8688;54.444;18.444;2023-05-19T13:09:23;3.47;;;1.30;;
17145;SDS011;8688;54.444;18.444;2023-05-19T13:11:50;2.42;;;1.10;;
17145;SDS011;8688;54.444;18.444;2023-05-19T13:14:20;2.55;;;1.00;;
17145;SDS011;8688;54.444;18.444;2023-05-19T13:16:48;3.10;;;1.10;;
17145;SDS011;8688;54.444;18.444;2023-05-19T13:19:16;5.07;;;1.50;;
17145;SDS011;8688;54.444;18.444;2023-05-19T13:21:45;2.05;;;1.00;;
17145;SDS011;8688;54.444;18.444;2023-05-19T13:24:13;2.20;;;1.10;;
17145;SDS011;8688;54.444;18.444;2023-05-19T13:26:41;3.15;;;1.25;;
17145;SDS011;8688;54.444;18.444;2023-05-19T13:29:08;2.03;;;1.10;;
17145;SDS011;8688;54.444;18.444;2023-05-19T13:31:37;2.25;;;1.70;;
17145;SDS011;8688;54.444;18.444;2023-05-19T13:34:05;3.63;;;1.27;;
17145;SDS011;8688;54.444;18.444;2023-05-19T13:36:32;1.98;;;1.20;;
17145;SDS011;8688;54.444;18.444;2023-05-19T13:39:00;4.68;;;1.10;;
17145;SDS011;8688;54.444;18.444;2023-05-19T13:41:28;2.85;;;1.52;;
17145;SDS011;8688;54.444;18.444;2023-05-19T13:43:56;2.10;;;0.90;;
17145;SDS011;8688;54.444;18.444;2023-05-19T13:46:24;2.58;;;1.17;;
17145;SDS011;8688;54.444;18.444;2023-05-19T13:48:53;2.55;;;1.23;;
17145;SDS011;8688;54.444;18.444;2023-05-19T13:51:22;3.67;;;1.15;;
17145;SDS011;8688;54.444;18.444;2023-05-19T13:53:50;1.33;;;1.10;;
17145;SDS011;8688;54.444;18.444;2023-05-19T13:56:17;2.88;;;1.20;;
17145;SDS011;8688;54.444;18.444;2023-05-19T13:58:45;1.58;;;1.00;;
17145;SDS011;8688;54.444;18.444;2023-05-19T14:01:12;2.45;;;1.20;;
17145;SDS011;8688;54.444;18.444;2023-05-19T14:03:40;2.30;;;1.02;;
17145;SDS011;8688;54.444;18.444;2023-05-19T14:06:08;3.28;;;1.30;;
17145;SDS011;8688;54.444;18.444;2023-05-19T14:08:36;1.75;;;1.10;;
17145;SDS011;8688;54.444;18.444;2023-05-19T14:11:03;4.40;;;1.25;;
17145;SDS011;8688;54.444;18.444;2023-05-19T14:13:31;1.90;;;1.20;;
17145;SDS011;8688;54.444;18.444;2023-05-19T14:15:59;2.50;;;1.23;;
17145;SDS011;8688;54.444;18.444;2023-05-19T14:18:27;2.38;;;1.23;;
17145;SDS011;8688;54.444;18.444;2023-05-19T14:20:55;2.78;;;1.02;;
17145;SDS011;8688;54.444;18.444;2023-05-19T14:23:24;1.88;;;1.25;;
17145;SDS011;8688;54.444;18.444;2023-05-19T14:25:53;1.73;;;1.17;;
17145;SDS011;8688;54.444;18.444;2023-05-19T14:28:20;2.65;;;1.10;;
17145;SDS011;8688;54.444;18.444;2023-05-19T14:30:48;1.92;;;1.40;;
17145;SDS011;8688;54.444;18.444;2023-05-19T14:33:15;5.35;;;1.55;;
17145;SDS011;8688;54.444;18.444;2023-05-19T14:35:43;1.80;;;1.20;;
17145;SDS011;8688;54.444;18.444;2023-05-19T14:38:11;3.72;;;1.40;;
17145;SDS011;8688;54.444;18.444;2023-05-19T14:40:40;2.80;;;1.60;;
17145;SDS011;8688;54.444;18.444;2023-05-19T14:43:07;4.43;;;2.50;;
17145;SDS011;8688;54.444;18.444;2023-05-19T14:45:35;3.33;;;1.60;;
17145;SDS011;8688;54.444;18.444;2023-05-19T14:48:08;4.70;;;2.08;;
17145;SDS011;8688;54.444;18.444;2023-05-19T14:50:36;4.15;;;2.20;;
17145;SDS011;8688;54.444;18.444;2023-05-19T14:53:03;4.65;;;2.17;;
17145;SDS011;8688;54.444;18.444;2023-05-19T14:55:31;4.97;;;2.50;;
17145;SDS011;8688;54.444;18.444;2023-05-19T14:58:00;7.30;;;3.13;;
17145;SDS011;8688;54.444;18.444;2023-05-19T15:00:27;4.47;;;2.03;;
17145;SDS011;8688;54.444;18.444;2023-05-19T15:02:54;3.35;;;2.03;;
17145;SDS011;8688;54.444;18.444;2023-05-19T15:05:22;6.90;;;1.92;;
17145;SDS011;8688;54.444;18.444;2023-05-19T15:07:49;5.15;;;2.67;;
17145;SDS011;8688;54.444;18.444;2023-05-19T15:10:17;7.72;;;2.80;;